Time;durP1;ratioP1;P1;durP2;ratioP2;P2;SDS_P1;SDS_P2;PMS_P1;PMS_P2;Temp;Humidity;BMP_temperature;BMP_pressure;BME280_temperature;BME280_humidity;BME280_pressure;Samples;Min_cycle;Max_cycle;Signal;HPM_P1;HPM_P2
2022/09/13 00:01:29;;;;;;;5.90;3.33;;;18.20;99.90;;;;;;5031074;28;20036;-82
2022/09/13 00:03:54;;;;;;;5.38;3.10;;;18.20;99.90;;;;;;5014641;28;20033;-83
2022/09/13 00:06:21;;;;;;;5.85;3.05;;;18.20;99.90;;;;;;5031975;28;20040;-82
2022/09/13 00:08:47;;;;;;;5.88;3.20;;;18.20;99.90;;;;;;5031905;28;20040;-82
2022/09/13 00:11:26;;;;;;;5.43;2.85;;;18.20;99.90;;;;;;5031943;28;20505;-82
2022/09/13 00:13:53;;;;;;;4.68;3.38;;;18.20;99.90;;;;;;5031885;28;20401;-82
2022/09/13 00:16:21;;;;;;;3.92;3.00;;;18.30;99.90;;;;;;5031778;28;20038;-82
2022/09/13 00:18:47;;;;;;;6.10;3.47;;;18.30;99.90;;;;;;5031599;28;20048;-82
2022/09/13 00:21:16;;;;;;;5.25;3.20;;;18.30;99.90;;;;;;5031657;28;20045;-82
2022/09/13 00:23:45;;;;;;;;;;;18.30;99.90;;;;;;5032230;28;20029;-82
2022/09/13 00:26:15;;;;;;;6.18;3.30;;;18.20;99.90;;;;;;5031464;28;19909;-82
2022/09/13 00:28:41;;;;;;;4.28;3.15;;;18.20;99.90;;;;;;5031407;28;20112;-82
2022/09/13 00:31:08;;;;;;;4.53;3.30;;;18.20;99.90;;;;;;5030177;28;20129;-82
2022/09/13 00:33:35;;;;;;;5.10;2.75;;;18.20;99.90;;;;;;5031488;28;20030;-83
2022/09/13 00:36:05;;;;;;;3.97;3.15;;;18.30;99.90;;;;;;5029953;28;20032;-83
2022/09/13 00:38:33;;;;;;;3.95;3.08;;;18.30;99.90;;;;;;5013391;28;20120;-83
2022/09/13 00:40:59;;;;;;;7.55;3.10;;;18.30;99.90;;;;;;5030384;28;20030;-83
2022/09/13 00:43:43;;;;;;;4.68;3.30;;;18.30;99.90;;;;;;5031417;28;20548;-82
2022/09/13 00:46:29;;;;;;;5.18;3.35;;;18.30;99.90;;;;;;5013423;28;20478;-82
2022/09/13 00:49:10;;;;;;;5.75;3.42;;;18.30;99.90;;;;;;5030967;28;20036;-82
2022/09/13 00:51:36;;;;;;;9.98;3.60;;;18.30;99.90;;;;;;5031187;28;20500;-83
2022/09/13 00:54:03;;;;;;;5.55;3.58;;;18.30;99.90;;;;;;5031183;28;20628;-83
2022/09/13 00:56:42;;;;;;;4.80;3.50;;;18.30;99.90;;;;;;5031021;28;20029;-83
2022/09/13 00:59:28;;;;;;;5.03;3.25;;;18.20;99.90;;;;;;5030912;28;20036;-83
2022/09/13 01:01:56;;;;;;;7.15;3.35;;;18.20;99.90;;;;;;5031067;28;20033;-83
2022/09/13 01:04:25;;;;;;;5.75;3.70;;;18.10;99.90;;;;;;5031058;28;20029;-83
2022/09/13 01:06:52;;;;;;;;;;;18.10;99.90;;;;;;5032259;28;20036;-83
2022/09/13 01:09:17;;;;;;;4.90;3.80;;;18.10;99.90;;;;;;5031337;28;19963;-82
2022/09/13 01:11:48;;;;;;;4.93;3.70;;;18.10;99.90;;;;;;5030722;28;20041;-82
2022/09/13 01:14:17;;;;;;;5.45;3.53;;;18.00;99.90;;;;;;5029709;28;20498;-82
2022/09/13 01:16:43;;;;;;;6.20;3.50;;;18.00;99.90;;;;;;5029491;28;20091;-82
2022/09/13 01:19:09;;;;;;;4.97;3.60;;;18.00;99.90;;;;;;5030684;28;20485;-82
2022/09/13 01:21:56;;;;;;;6.15;3.72;;;18.00;99.90;;;;;;5029475;28;20385;-82
2022/09/13 01:24:40;;;;;;;5.65;3.47;;;18.00;99.90;;;;;;5029512;28;20041;-81
2022/09/13 01:27:41;;;;;;;6.63;3.60;;;17.90;99.90;;;;;;5030814;28;20142;-82
2022/09/13 01:30:07;;;;;;;5.35;3.60;;;17.90;99.90;;;;;;5022180;28;20068;-82
2022/09/13 01:33:02;;;;;;;7.10;3.70;;;17.90;99.90;;;;;;5030780;28;20116;-82
2022/09/13 01:35:31;;;;;;;7.25;3.63;;;17.90;99.90;;;;;;5030705;28;20033;-82
2022/09/13 01:38:17;;;;;;;8.02;3.83;;;17.90;99.90;;;;;;5030498;28;20040;-82
2022/09/13 01:41:01;;;;;;;6.10;3.80;;;17.90;99.90;;;;;;5030211;28;20025;-82
2022/09/13 01:44:00;;;;;;;4.70;3.22;;;17.90;99.90;;;;;;5030735;28;20036;-82
2022/09/13 01:46:49;;;;;;;6.78;3.70;;;17.90;99.90;;;;;;5030423;28;20121;-82
2022/09/13 01:49:30;;;;;;;5.63;3.90;;;17.90;99.90;;;;;;5030396;28;20025;-82
2022/09/13 01:52:20;;;;;;;6.30;3.30;;;17.90;99.90;;;;;;5030453;28;20068;-82
2022/09/13 01:54:55;;;;;;;5.63;3.25;;;17.90;99.90;;;;;;5030706;28;20038;-82
2022/09/13 01:57:39;;;;;;;4.88;3.20;;;18.00;99.90;;;;;;5030245;28;20030;-82
2022/09/13 02:00:13;;;;;;;6.40;3.45;;;18.00;99.90;;;;;;5030100;28;20041;-82
2022/09/13 02:02:49;;;;;;;5.45;3.33;;;18.00;99.90;;;;;;5029110;28;20494;-82
2022/09/13 02:05:15;;;;;;;5.35;3.55;;;18.00;99.90;;;;;;5030484;28;20259;-81
2022/09/13 02:07:44;;;;;;;5.25;3.63;;;18.00;99.90;;;;;;5030129;28;20112;-82
2022/09/13 02:10:58;;;;;;;6.07;3.75;;;18.00;99.90;;;;;;5033681;28;20040;-82
2022/09/13 02:13:30;;;;;;;5.70;4.10;;;18.00;99.90;;;;;;4972792;28;20475;-82
2022/09/13 02:16:01;;;;;;;6.47;4.35;;;18.00;99.90;;;;;;4972646;28;20038;-81
2022/09/13 02:18:35;;;;;;;5.97;4.00;;;18.00;99.90;;;;;;5002031;28;20140;-82
2022/09/13 02:21:21;;;;;;;7.18;4.32;;;18.00;99.90;;;;;;5033937;28;20144;-82
2022/09/13 02:23:50;;;;;;;7.32;3.88;;;17.90;99.90;;;;;;5034065;28;20025;-82
2022/09/13 02:26:19;;;;;;;6.65;3.78;;;17.90;99.90;;;;;;5033736;28;20021;-82
2022/09/13 02:28:50;;;;;;;7.15;3.80;;;17.90;99.90;;;;;;5032460;28;20470;-82
2022/09/13 02:31:22;;;;;;;6.25;3.60;;;17.90;99.90;;;;;;5033725;28;20030;-82
2022/09/13 02:34:02;;;;;;;6.35;3.70;;;17.90;99.90;;;;;;5033828;28;20048;-82
2022/09/13 02:36:32;;;;;;;7.28;4.32;;;17.90;99.90;;;;;;5033615;28;20612;-83
2022/09/13 02:39:05;;;;;;;7.68;4.28;;;17.90;99.90;;;;;;5033422;28;20040;-82
2022/09/13 02:41:37;;;;;;;6.53;4.07;;;17.90;99.90;;;;;;5033564;28;20468;-82
2022/09/13 02:44:25;;;;;;;6.25;3.58;;;17.90;99.90;;;;;;5033492;28;20470;-82
2022/09/13 02:46:59;;;;;;;;;;;17.90;99.90;;;;;;5032635;28;20037;-83
2022/09/13 02:49:37;;;;;;;6.53;4.63;;;17.90;99.90;;;;;;5032171;28;19909;-82
2022/09/13 02:52:20;;;;;;;5.53;4.10;;;17.90;99.90;;;;;;5032159;28;20120;-83
2022/09/13 02:55:34;;;;;;;8.65;3.95;;;17.90;99.90;;;;;;5033352;28;20393;-82
2022/09/13 02:58:10;;;;;;;5.22;3.70;;;17.90;99.90;;;;;;5027836;28;20083;-82
2022/09/13 03:00:36;;;;;;;5.50;3.75;;;17.90;99.90;;;;;;5033100;28;20555;-82
2022/09/13 03:03:05;;;;;;;5.30;3.25;;;17.90;99.90;;;;;;5033180;28;20390;-82
2022/09/13 03:05:31;;;;;;;7.97;3.70;;;17.90;99.90;;;;;;5033308;28;20022;-82
2022/09/13 03:07:58;;;;;;;5.85;3.38;;;17.90;99.90;;;;;;5033130;28;20539;-83
2022/09/13 03:13:32;;;;;;;6.75;3.60;;;17.90;99.90;;;;;;5010832;28;20053;-81
2022/09/13 03:16:27;;;;;;;6.00;3.92;;;17.90;99.90;;;;;;5011549;28;20069;-86
2022/09/13 03:19:21;;;;;;;6.63;4.00;;;18.00;99.90;;;;;;5003155;28;20038;-87
2022/09/13 03:22:05;;;;;;;6.53;3.80;;;17.90;99.90;;;;;;5013255;28;20040;-86
2022/09/13 03:24:39;;;;;;;5.47;3.83;;;17.90;99.90;;;;;;4992062;28;20439;-84
2022/09/13 03:27:23;;;;;;;6.35;4.18;;;17.90;99.90;;;;;;4990511;28;20042;-84
2022/09/13 03:30:07;;;;;;;7.72;4.50;;;17.90;99.90;;;;;;4990986;28;20044;-84
2022/09/13 03:33:00;;;;;;;6.85;4.47;;;17.90;99.90;;;;;;4991756;28;20472;-84
2022/09/13 03:35:54;;;;;;;7.22;4.50;;;17.80;99.90;;;;;;4992213;28;20038;-85
2022/09/13 03:38:43;;;;;;;6.60;4.32;;;17.70;99.90;;;;;;4992005;28;20112;-86
2022/09/13 03:43:50;;;;;;;6.32;4.10;;;17.70;99.90;;;;;;4971182;28;20039;-70
2022/09/13 03:46:37;;;;;;;6.95;4.30;;;17.70;99.90;;;;;;4972434;28;20114;-72
2022/09/13 03:49:09;;;;;;;8.70;4.85;;;17.70;99.90;;;;;;4972182;28;20164;-71
2022/09/13 03:51:36;;;;;;;7.97;4.57;;;17.60;99.90;;;;;;4972746;28;20026;-71
2022/09/13 03:54:05;;;;;;;6.85;4.70;;;17.60;99.90;;;;;;4972940;28;20502;-71
2022/09/13 03:56:31;;;;;;;8.65;4.95;;;17.60;99.90;;;;;;4971268;28;20038;-71
2022/09/13 03:58:57;;;;;;;8.18;4.55;;;17.60;99.90;;;;;;4973289;28;20041;-72
2022/09/13 04:01:24;;;;;;;8.73;4.50;;;17.60;99.90;;;;;;4972723;28;20029;-70
2022/09/13 04:03:50;;;;;;;6.30;4.80;;;17.50;99.90;;;;;;4972249;28;20031;-70
2022/09/13 04:06:16;;;;;;;7.43;4.43;;;17.50;99.90;;;;;;4987920;28;20033;-71
2022/09/13 04:08:43;;;;;;;6.68;4.80;;;17.50;99.90;;;;;;4971378;28;20023;-71
2022/09/13 04:11:10;;;;;;;6.03;4.63;;;17.50;99.90;;;;;;4971950;28;20484;-71
2022/09/13 04:13:37;;;;;;;8.98;5.40;;;17.50;99.90;;;;;;4972559;28;20026;-71
2022/09/13 04:16:05;;;;;;;11.15;5.00;;;17.50;99.90;;;;;;4970999;28;20026;-70
2022/09/13 04:18:31;;;;;;;6.95;4.90;;;17.50;99.90;;;;;;4972294;28;20031;-71
2022/09/13 04:20:59;;;;;;;7.90;5.10;;;17.50;99.90;;;;;;4971941;28;20026;-71
2022/09/13 04:23:26;;;;;;;8.38;5.13;;;17.50;99.90;;;;;;4972217;28;20042;-70
2022/09/13 04:25:52;;;;;;;6.60;4.70;;;17.50;99.90;;;;;;4970977;28;20114;-71
2022/09/13 04:28:19;;;;;;;6.50;5.25;;;17.60;99.90;;;;;;4963433;28;20529;-71
2022/09/13 04:30:46;;;;;;;6.68;4.43;;;17.60;99.90;;;;;;4967836;28;20511;-72
2022/09/13 04:33:13;;;;;;;6.85;5.00;;;17.60;99.90;;;;;;4971683;28;20038;-71
2022/09/13 04:35:40;;;;;;;6.88;4.38;;;17.60;99.90;;;;;;4971647;28;20097;-70
2022/09/13 04:38:07;;;;;;;7.22;4.63;;;17.60;99.90;;;;;;4971867;28;20041;-71
2022/09/13 04:40:34;;;;;;;8.13;5.07;;;17.60;99.90;;;;;;4970944;28;20395;-72
2022/09/13 04:43:01;;;;;;;8.80;4.97;;;17.60;99.90;;;;;;4971769;28;20695;-70
2022/09/13 04:45:27;;;;;;;6.18;4.75;;;17.60;99.90;;;;;;4971604;28;20023;-72
2022/09/13 04:47:55;;;;;;;6.00;4.75;;;17.60;99.90;;;;;;4971630;28;20031;-71
2022/09/13 04:50:23;;;;;;;8.45;4.93;;;17.60;99.90;;;;;;4971549;28;20419;-71
2022/09/13 04:52:50;;;;;;;7.82;4.95;;;17.60;99.90;;;;;;4971558;28;20167;-71
2022/09/13 04:55:16;;;;;;;9.35;5.35;;;17.60;99.90;;;;;;4970981;28;20048;-70
2022/09/13 04:57:42;;;;;;;6.47;4.85;;;17.60;99.90;;;;;;4971581;28;20030;-71
2022/09/13 05:00:09;;;;;;;8.35;5.18;;;17.60;99.90;;;;;;4971085;28;20045;-71
2022/09/13 05:02:35;;;;;;;7.03;4.53;;;17.50;99.90;;;;;;4971216;28;20027;-71
2022/09/13 05:05:01;;;;;;;6.47;4.75;;;17.60;99.90;;;;;;4969773;28;20514;-71
2022/09/13 05:07:27;;;;;;;7.60;4.80;;;17.60;99.90;;;;;;4969813;28;20031;-71
2022/09/13 05:09:53;;;;;;;7.85;5.07;;;17.60;99.90;;;;;;4969499;28;20031;-71
2022/09/13 05:12:19;;;;;;;10.32;5.78;;;17.50;99.90;;;;;;4969785;28;20062;-71
2022/09/13 05:14:45;;;;;;;7.25;5.57;;;17.50;99.90;;;;;;4969475;28;20066;-71
2022/09/13 05:17:11;;;;;;;7.90;5.10;;;17.50;99.90;;;;;;4969852;28;20035;-70
2022/09/13 05:19:37;;;;;;;7.72;4.90;;;17.50;99.90;;;;;;4985337;28;20037;-71
2022/09/13 05:22:03;;;;;;;8.00;5.70;;;17.50;99.90;;;;;;4971238;28;20252;-71
2022/09/13 05:24:29;;;;;;;11.55;6.07;;;17.50;99.90;;;;;;4970523;28;20599;-71
2022/09/13 05:26:55;;;;;;;9.27;5.60;;;17.60;99.90;;;;;;4971240;28;20042;-71
2022/09/13 05:29:20;;;;;;;6.43;4.72;;;17.60;99.90;;;;;;4970886;28;20146;-72
2022/09/13 05:31:46;;;;;;;7.63;5.07;;;17.50;99.90;;;;;;4971129;28;20050;-71
2022/09/13 05:34:16;;;;;;;8.60;5.38;;;17.50;99.90;;;;;;4970885;28;20023;-71
2022/09/13 05:36:43;;;;;;;8.45;4.95;;;17.50;99.90;;;;;;4971068;28;20333;-71
2022/09/13 05:39:14;;;;;;;6.85;5.05;;;17.60;99.90;;;;;;4985763;28;20569;-72
2022/09/13 05:41:40;;;;;;;7.28;5.13;;;17.60;99.90;;;;;;4970794;28;20046;-71
2022/09/13 05:44:08;;;;;;;8.57;5.28;;;17.50;99.90;;;;;;4973390;28;20046;-70
2022/09/13 05:46:34;;;;;;;11.52;5.28;;;17.50;99.90;;;;;;4975538;28;20045;-71
2022/09/13 05:49:00;;;;;;;6.88;4.90;;;17.60;99.90;;;;;;4974933;28;20035;-71
2022/09/13 05:51:26;;;;;;;11.05;5.10;;;17.60;99.90;;;;;;4974831;28;20026;-71
2022/09/13 05:53:53;;;;;;;7.47;4.93;;;17.60;99.90;;;;;;4975069;28;20034;-71
2022/09/13 05:56:25;;;;;;;8.75;4.85;;;17.60;99.90;;;;;;4974389;28;20367;-71
2022/09/13 05:58:52;;;;;;;8.70;5.45;;;17.50;99.90;;;;;;4972162;28;20043;-70
2022/09/13 06:01:20;;;;;;;10.30;5.07;;;17.60;99.90;;;;;;4954780;28;20370;-70
2022/09/13 06:03:50;;;;;;;8.57;5.25;;;17.60;99.90;;;;;;4954730;28;20025;-70
2022/09/13 06:06:17;;;;;;;8.43;5.43;;;17.60;99.90;;;;;;4955005;28;20031;-70
2022/09/13 06:08:43;;;;;;;8.75;5.60;;;17.70;99.90;;;;;;4977540;28;20042;-70
2022/09/13 06:11:11;;;;;;;9.13;5.13;;;17.70;99.90;;;;;;5008289;28;20030;-71
2022/09/13 06:13:38;;;;;;;8.45;5.05;;;17.70;99.90;;;;;;4993660;28;20030;-70
2022/09/13 06:16:07;;;;;;;10.30;5.63;;;17.70;99.90;;;;;;4993311;28;20038;-71
2022/09/13 06:18:34;;;;;;;7.47;4.95;;;17.70;99.90;;;;;;4982360;28;20039;-71
2022/09/13 06:21:07;;;;;;;10.80;5.50;;;17.80;99.90;;;;;;4974471;28;20046;-71
2022/09/13 06:23:33;;;;;;;10.52;5.13;;;17.80;99.90;;;;;;4973137;28;20022;-71
2022/09/13 06:26:09;;;;;;;9.38;5.75;;;17.80;99.90;;;;;;4973823;28;20038;-70
2022/09/13 06:28:36;;;;;;;8.98;5.28;;;17.80;99.90;;;;;;4974175;28;20034;-71
2022/09/13 06:31:07;;;;;;;8.27;5.38;;;17.80;99.90;;;;;;4973775;28;20538;-70
2022/09/13 06:33:35;;;;;;;8.05;5.45;;;17.80;99.90;;;;;;4974251;28;20034;-71
2022/09/13 06:36:10;;;;;;;8.93;5.53;;;17.90;99.90;;;;;;4973560;28;20117;-71
2022/09/13 06:38:39;;;;;;;7.38;5.68;;;17.90;99.90;;;;;;4973879;28;20086;-71
2022/09/13 06:41:13;;;;;;;7.07;5.07;;;18.00;99.90;;;;;;4973219;28;20034;-70
2022/09/13 06:43:40;;;;;;;9.43;5.63;;;18.00;99.90;;;;;;4973874;28;20031;-71
2022/09/13 06:46:15;;;;;;;10.85;5.35;;;18.10;99.90;;;;;;4973804;28;20106;-72
2022/09/13 06:48:43;;;;;;;12.43;6.13;;;18.10;99.90;;;;;;4973869;28;20042;-71
2022/09/13 06:51:13;;;;;;;10.95;6.00;;;18.10;99.90;;;;;;4973433;28;20031;-72
2022/09/13 06:53:40;;;;;;;11.10;5.88;;;18.10;99.90;;;;;;4988471;28;20657;-72
2022/09/13 06:56:10;;;;;;;10.05;5.60;;;18.20;99.90;;;;;;4972719;28;20544;-72
2022/09/13 06:58:37;;;;;;;10.55;5.72;;;18.20;99.90;;;;;;4972526;28;20030;-72
2022/09/13 07:01:10;;;;;;;8.73;4.90;;;18.20;99.90;;;;;;4973291;28;20117;-74
2022/09/13 07:03:41;;;;;;;8.80;5.03;;;18.20;99.90;;;;;;4973712;28;20031;-72
2022/09/13 07:06:09;;;;;;;7.55;4.70;;;18.30;99.90;;;;;;4973107;28;20157;-73
2022/09/13 07:08:35;;;;;;;10.57;5.82;;;18.30;99.90;;;;;;4973442;28;20103;-70
2022/09/13 07:11:01;;;;;;;7.47;5.20;;;18.40;99.90;;;;;;4972823;28;20033;-73
2022/09/13 07:13:27;;;;;;;8.98;5.18;;;18.40;99.90;;;;;;4973498;28;20030;-73
2022/09/13 07:15:53;;;;;;;8.27;5.45;;;18.50;99.90;;;;;;4973149;28;20054;-70
2022/09/13 07:18:18;;;;;;;8.48;4.90;;;18.50;99.90;;;;;;4973773;28;20033;-71
2022/09/13 07:20:44;;;;;;;12.68;5.90;;;18.50;99.90;;;;;;4972681;28;20491;-72
2022/09/13 07:23:10;;;;;;;12.27;5.60;;;18.50;99.90;;;;;;4973290;28;20070;-71
2022/09/13 07:25:36;;;;;;;9.38;5.43;;;18.60;99.90;;;;;;4972492;28;20238;-71
2022/09/13 07:28:02;;;;;;;12.32;5.82;;;18.60;99.90;;;;;;4973255;28;20051;-71
2022/09/13 07:30:27;;;;;;;10.30;5.40;;;18.60;99.90;;;;;;4969929;28;20474;-71
2022/09/13 07:32:53;;;;;;;8.90;5.32;;;18.70;99.90;;;;;;4958931;28;20031;-70
2022/09/13 07:35:19;;;;;;;9.10;4.93;;;18.70;99.90;;;;;;4953556;28;20031;-70
2022/09/13 07:37:45;;;;;;;8.52;5.47;;;18.70;99.90;;;;;;4953560;28;20043;-72
2022/09/13 07:40:12;;;;;;;7.55;4.90;;;18.70;99.90;;;;;;4952866;28;20093;-70
2022/09/13 07:42:38;;;;;;;8.00;5.18;;;18.70;99.90;;;;;;4953963;28;20444;-70
2022/09/13 07:45:04;;;;;;;7.47;5.20;;;18.80;99.90;;;;;;4953484;28;20070;-70
2022/09/13 07:47:33;;;;;;;9.45;5.50;;;18.80;99.90;;;;;;4953330;28;20039;-70
2022/09/13 07:49:59;;;;;;;6.72;4.97;;;18.80;99.90;;;;;;4952966;28;20034;-70
2022/09/13 07:52:28;;;;;;;7.70;5.32;;;18.90;99.90;;;;;;4953898;28;20391;-67
2022/09/13 07:54:53;;;;;;;7.93;5.10;;;18.90;99.90;;;;;;4953018;28;20520;-73
2022/09/13 07:57:19;;;;;;;8.60;4.93;;;18.90;99.90;;;;;;4953793;28;20098;-68
2022/09/13 07:59:45;;;;;;;6.40;4.68;;;18.90;99.90;;;;;;4952820;29;20174;-68
2022/09/13 08:02:11;;;;;;;7.35;4.78;;;19.00;99.90;;;;;;4969523;28;20053;-68
2022/09/13 08:04:37;;;;;;;8.80;4.72;;;19.00;99.90;;;;;;4971557;28;20050;-69
2022/09/13 08:07:03;;;;;;;8.52;4.78;;;19.10;99.90;;;;;;4971138;28;20125;-71
2022/09/13 08:09:29;;;;;;;8.77;4.35;;;19.10;99.90;;;;;;4971291;28;20027;-68
2022/09/13 08:11:55;;;;;;;8.52;5.20;;;19.10;99.90;;;;;;4971970;28;20392;-68
2022/09/13 08:14:22;;;;;;;12.00;6.32;;;19.20;99.90;;;;;;4971668;28;20049;-69
2022/09/13 08:16:49;;;;;;;11.20;6.40;;;19.20;99.90;;;;;;4971994;28;20035;-68
2022/09/13 08:19:17;;;;;;;9.88;5.88;;;19.30;99.90;;;;;;4971673;28;20038;-68
2022/09/13 08:21:44;;;;;;;13.68;6.18;;;19.30;99.90;;;;;;4972133;28;20038;-68
2022/09/13 08:24:20;;;;;;;9.95;5.60;;;19.30;99.90;;;;;;4970749;28;20041;-69
2022/09/13 08:26:46;;;;;;;10.88;5.10;;;19.40;99.90;;;;;;4971975;28;20499;-68
2022/09/13 08:29:13;;;;;;;8.50;5.25;;;19.40;99.90;;;;;;4986702;28;20121;-68
2022/09/13 08:31:39;;;;;;;9.13;4.90;;;19.40;99.90;;;;;;4971896;28;20112;-68
2022/09/13 08:34:13;;;;;;;8.90;4.85;;;19.40;99.90;;;;;;4970748;28;20488;-68
2022/09/13 08:36:40;;;;;;;8.18;5.80;;;19.50;99.90;;;;;;4971960;28;20034;-68
2022/09/13 08:39:07;;;;;;;9.85;5.38;;;19.50;99.90;;;;;;4970383;28;20046;-69
2022/09/13 08:41:44;;;;;;;14.30;5.90;;;19.60;99.90;;;;;;4971146;28;20089;-68
2022/09/13 08:44:22;;;;;;;10.38;5.10;;;19.60;99.90;;;;;;4971701;28;20521;-69
2022/09/13 08:46:48;;;;;;;11.90;5.95;;;19.60;99.90;;;;;;4971508;28;20034;-68
2022/09/13 08:49:27;;;;;;;12.82;5.07;;;19.60;99.90;;;;;;4970845;28;20042;-70
2022/09/13 08:51:57;;;;;;;9.50;5.03;;;19.60;99.90;;;;;;4971583;28;20035;-68
2022/09/13 08:54:23;;;;;;;17.23;8.68;;;19.60;99.90;;;;;;4970790;28;20440;-68
2022/09/13 08:57:04;;;;;;;16.55;9.00;;;19.60;99.90;;;;;;4971477;28;20035;-69
2022/09/13 08:59:53;;;;;;;17.73;9.63;;;19.70;99.90;;;;;;4971144;28;20034;-69
2022/09/13 09:02:34;;;;;;;19.30;8.50;;;19.70;99.90;;;;;;4969967;28;20034;-69
2022/09/13 09:05:18;;;;;;;15.93;8.45;;;19.70;99.90;;;;;;4969703;28;20093;-69
2022/09/13 09:08:09;;;;;;;12.27;7.43;;;19.70;99.90;;;;;;4971422;28;20392;-69
2022/09/13 09:13:44;;;;;;;15.93;8.43;;;19.80;99.90;;;;;;4969066;28;20074;-71
2022/09/13 09:16:55;;;;;;;22.50;9.93;;;19.90;99.90;;;;;;4970863;28;20073;-72
2022/09/13 09:19:33;;;;;;;14.82;8.43;;;19.90;99.90;;;;;;4965931;28;20126;-72
2022/09/13 09:22:03;;;;;;;11.43;6.97;;;19.90;99.90;;;;;;4971112;28;20133;-72
2022/09/13 09:24:36;;;;;;;16.33;8.70;;;20.00;99.90;;;;;;4970550;28;20130;-72
2022/09/13 09:27:14;;;;;;;14.77;7.00;;;20.00;99.90;;;;;;4971160;28;20193;-73
2022/09/13 09:29:45;;;;;;;12.55;6.47;;;20.00;99.90;;;;;;4971054;28;20027;-74
2022/09/13 09:32:45;;;;;;;14.38;8.10;;;20.00;99.90;;;;;;4972207;28;20046;-73
2022/09/13 09:35:34;;;;;;;12.30;6.53;;;20.00;99.90;;;;;;4970592;28;20042;-74
2022/09/13 09:38:15;;;;;;;9.93;5.50;;;20.10;99.90;;;;;;4970891;28;20480;-74
2022/09/13 09:40:41;;;;;;;13.57;6.72;;;20.10;99.90;;;;;;4969960;28;20035;-74
2022/09/13 09:43:37;;;;;;;13.60;8.02;;;20.10;99.90;;;;;;4970893;28;20096;-74
2022/09/13 09:46:06;;;;;;;13.02;7.10;;;20.20;99.90;;;;;;4968638;28;20035;-73
2022/09/13 09:48:42;;;;;;;12.65;6.32;;;20.30;99.90;;;;;;4970948;28;20479;-73
2022/09/13 09:51:10;;;;;;;13.10;5.57;;;20.30;99.90;;;;;;4970532;28;20031;-74
2022/09/13 09:53:42;;;;;;;11.05;5.65;;;20.40;99.90;;;;;;4969683;28;20057;-76
2022/09/13 09:56:23;;;;;;;13.25;5.70;;;20.50;99.90;;;;;;4968778;28;20042;-73
2022/09/13 09:58:51;;;;;;;10.07;5.43;;;20.60;99.90;;;;;;4970616;28;20065;-73
2022/09/13 10:01:33;;;;;;;13.35;6.03;;;20.60;99.90;;;;;;4970313;28;20045;-73
2022/09/13 10:04:11;;;;;;;13.27;5.35;;;20.60;99.90;;;;;;4969009;28;20101;-74
2022/09/13 10:06:40;;;;;;;11.20;6.13;;;20.70;99.90;;;;;;4969138;28;20030;-73
2022/09/13 10:09:14;;;;;;;;;;;20.70;99.90;;;;;;4970745;28;20043;-72
2022/09/13 10:11:50;;;;;;;11.68;4.68;;;20.80;99.90;;;;;;4968806;28;20385;-71
2022/09/13 10:14:33;;;;;;;9.70;5.57;;;20.80;99.90;;;;;;4970143;28;20414;-76
2022/09/13 10:17:14;;;;;;;13.38;6.28;;;20.80;99.90;;;;;;4969141;28;20027;-73
2022/09/13 10:19:50;;;;;;;11.50;6.00;;;20.80;99.90;;;;;;4984664;28;20046;-72
2022/09/13 10:22:16;;;;;;;12.20;5.97;;;20.90;99.90;;;;;;4970168;28;20118;-72
2022/09/13 10:24:43;;;;;;;8.55;4.93;;;20.90;99.90;;;;;;4968586;28;20114;-70
2022/09/13 10:27:33;;;;;;;15.50;6.32;;;20.90;99.90;;;;;;4969460;28;20370;-70
2022/09/13 10:30:05;;;;;;;11.98;5.97;;;21.10;99.90;;;;;;4971852;28;20417;-70
2022/09/13 10:32:32;;;;;;;9.23;5.13;;;21.00;99.90;;;;;;4973780;28;20348;-76
2022/09/13 10:35:07;;;;;;;11.93;5.32;;;21.00;99.90;;;;;;4973901;28;20113;-75
2022/09/13 10:37:35;;;;;;;11.30;6.68;;;21.10;99.90;;;;;;4988572;28;20030;-75
2022/09/13 10:40:12;;;;;;;8.93;5.07;;;21.10;99.90;;;;;;4987940;28;20459;-76
2022/09/13 10:42:38;;;;;;;8.02;4.88;;;21.10;99.90;;;;;;4988557;28;20074;-76
2022/09/13 10:45:07;;;;;;;9.32;5.25;;;21.10;99.90;;;;;;4973478;28;20039;-75
2022/09/13 10:47:44;;;;;;;8.85;5.15;;;21.10;99.90;;;;;;4972953;28;20031;-69
2022/09/13 10:50:26;;;;;;;7.78;4.53;;;21.10;99.90;;;;;;4973875;28;20023;-73
2022/09/13 10:52:55;;;;;;;11.82;5.82;;;21.10;99.90;;;;;;4973775;28;20058;-73
2022/09/13 10:55:21;;;;;;;9.43;4.70;;;21.10;99.90;;;;;;4974826;28;20232;-71
2022/09/13 10:57:49;;;;;;;7.82;5.07;;;21.20;99.90;;;;;;4974874;28;20046;-71
2022/09/13 11:00:21;;;;;;;10.70;5.83;;;21.20;99.90;;;;;;4974959;28;20054;-70
2022/09/13 11:03:12;;;;;;;7.43;4.43;;;21.30;99.90;;;;;;4974802;28;20270;-71
2022/09/13 11:05:54;;;;;;;8.80;5.30;;;21.30;99.90;;;;;;4974653;28;20055;-71
2022/09/13 11:08:25;;;;;;;8.85;4.78;;;21.40;99.90;;;;;;4974864;28;20039;-71
2022/09/13 11:11:09;;;;;;;14.07;6.50;;;21.40;99.90;;;;;;4974591;28;20039;-71
2022/09/13 11:14:09;;;;;;;10.45;5.10;;;21.40;99.90;;;;;;4974516;28;20531;-71
2022/09/13 11:17:00;;;;;;;13.80;7.53;;;21.40;99.90;;;;;;4974574;28;20430;-71
2022/09/13 11:19:50;;;;;;;11.63;6.35;;;21.50;99.90;;;;;;4974330;28;20034;-71
2022/09/13 11:22:25;;;;;;;9.98;5.50;;;21.50;99.90;;;;;;4974546;28;20460;-71
2022/09/13 11:25:14;;;;;;;9.15;5.00;;;21.40;99.90;;;;;;4974379;28;20106;-71
2022/09/13 11:28:06;;;;;;;10.27;6.00;;;21.30;99.90;;;;;;4963289;28;20129;-71
2022/09/13 11:31:02;;;;;;;11.18;5.95;;;21.30;99.90;;;;;;4963809;28;20031;-71
2022/09/13 11:33:40;;;;;;;10.75;5.70;;;21.40;99.90;;;;;;4974076;28;20038;-71
2022/09/13 11:36:14;;;;;;;11.48;5.38;;;21.50;99.90;;;;;;4974149;28;20080;-71
2022/09/13 11:38:50;;;;;;;9.35;5.00;;;21.60;99.90;;;;;;4974224;28;20086;-71
2022/09/13 11:41:53;;;;;;;12.55;5.28;;;21.80;99.90;;;;;;4972849;28;20041;-71
2022/09/13 11:44:41;;;;;;;12.75;6.00;;;21.80;99.90;;;;;;4974112;28;20027;-71
2022/09/13 11:47:30;;;;;;;11.80;6.22;;;21.90;99.90;;;;;;4973840;28;20027;-72
2022/09/13 11:49:59;;;;;;;8.93;5.65;;;21.90;99.90;;;;;;4974299;28;20066;-72
2022/09/13 11:52:28;;;;;;;11.50;6.32;;;21.90;99.90;;;;;;4975383;28;20367;-72
2022/09/13 11:54:57;;;;;;;13.15;6.28;;;22.00;99.90;;;;;;4973808;28;20030;-72
2022/09/13 11:57:31;;;;;;;12.55;6.82;;;22.00;99.90;;;;;;4973752;28;20086;-72
2022/09/13 12:00:19;;;;;;;13.02;6.63;;;22.00;99.90;;;;;;4974493;28;20066;-73
2022/09/13 12:03:03;;;;;;;13.38;6.45;;;22.00;99.90;;;;;;4988771;28;20031;-71
2022/09/13 12:05:34;;;;;;;8.85;5.10;;;22.10;99.90;;;;;;4972449;28;20111;-72
2022/09/13 12:08:06;;;;;;;10.93;5.30;;;22.10;99.90;;;;;;4973508;28;20463;-71
2022/09/13 12:10:55;;;;;;;12.25;5.35;;;22.20;99.90;;;;;;4973282;28;20526;-71
2022/09/13 12:13:29;;;;;;;8.95;4.22;;;22.20;99.90;;;;;;4973657;28;20574;-71
2022/09/13 12:16:01;;;;;;;9.68;5.53;;;22.30;99.90;;;;;;4973371;28;20555;-72
2022/09/13 12:18:29;;;;;;;9.00;4.65;;;22.40;99.90;;;;;;4973574;28;20035;-71
2022/09/13 12:21:02;;;;;;;12.55;5.40;;;22.40;99.90;;;;;;4972914;28;20031;-71
2022/09/13 12:23:54;;;;;;;9.45;5.00;;;22.60;99.90;;;;;;4972357;28;20046;-71
2022/09/13 12:26:35;;;;;;;7.00;4.60;;;22.60;99.90;;;;;;4973288;28;20031;-71
2022/09/13 12:29:26;;;;;;;9.35;4.70;;;22.60;99.90;;;;;;4971692;28;20443;-71
2022/09/13 12:31:58;;;;;;;7.82;4.50;;;22.60;99.90;;;;;;4967949;28;20137;-72
2022/09/13 12:34:33;;;;;;;9.13;4.65;;;22.70;99.90;;;;;;4973145;28;20035;-71
2022/09/13 12:37:08;;;;;;;8.13;5.13;;;22.60;99.90;;;;;;4973067;28;20121;-71
2022/09/13 12:39:52;;;;;;;9.35;5.95;;;22.80;99.70;;;;;;4972719;28;20026;-72
2022/09/13 12:42:18;;;;;;;7.95;5.65;;;22.80;99.60;;;;;;4972884;28;20026;-72
2022/09/13 12:45:22;;;;;;;7.85;4.22;;;22.80;99.50;;;;;;4971802;28;20320;-72
2022/09/13 12:47:57;;;;;;;10.70;5.05;;;22.80;99.40;;;;;;4972629;28;20502;-71
2022/09/13 12:50:49;;;;;;;9.20;5.88;;;22.70;99.80;;;;;;4972552;28;20042;-71
2022/09/13 12:53:50;;;;;;;11.70;5.80;;;22.80;99.90;;;;;;4971334;28;20031;-72
2022/09/13 12:56:35;;;;;;;8.90;5.57;;;22.90;99.90;;;;;;4972536;28;20035;-71
2022/09/13 12:59:29;;;;;;;9.80;5.65;;;22.90;99.90;;;;;;4972524;28;20390;-71
2022/09/13 13:01:56;;;;;;;9.18;5.70;;;23.00;99.90;;;;;;4972685;28;20027;-71
2022/09/13 13:04:32;;;;;;;8.93;5.40;;;23.00;99.90;;;;;;4972553;28;20069;-72
2022/09/13 13:07:05;;;;;;;8.45;4.63;;;23.10;99.90;;;;;;4972599;28;20552;-72
2022/09/13 13:09:39;;;;;;;9.18;6.28;;;23.20;98.90;;;;;;4972415;28;20031;-71
2022/09/13 13:12:06;;;;;;;10.13;4.53;;;23.20;98.40;;;;;;4972384;28;20089;-72
2022/09/13 13:14:38;;;;;;;6.75;4.03;;;23.10;98.40;;;;;;4971265;28;20419;-72
2022/09/13 13:17:39;;;;;;;6.35;3.80;;;23.10;97.40;;;;;;4972219;28;20415;-71
2022/09/13 13:20:41;;;;;;;6.05;3.20;;;23.10;97.20;;;;;;4972128;28;20425;-71
2022/09/13 13:23:39;;;;;;;7.55;4.07;;;23.10;97.20;;;;;;4971076;28;20031;-71
2022/09/13 13:26:31;;;;;;;7.90;4.97;;;23.20;97.70;;;;;;4972253;28;20034;-71
2022/09/13 13:29:23;;;;;;;8.60;4.80;;;23.30;97.70;;;;;;4972340;28;20019;-71